createdAt,value
2018-02-27T00:00:22.418Z,102477.25
2018-02-27T00:03:25.770Z,102474.04
2018-02-27T00:06:28.921Z,102471.33
2018-02-27T00:09:32.135Z,102467.57
2018-02-27T00:12:35.586Z,102473.18
2018-02-27T00:15:38.834Z,102466.61
2018-02-27T00:18:42.029Z,102473.70
2018-02-27T00:21:45.298Z,102467.54
2018-02-27T00:24:48.535Z,102471.93
2018-02-27T00:27:52.356Z,102469.18
2018-02-27T00:30:55.511Z,102466.04
2018-02-27T00:33:58.723Z,102469.41
2018-02-27T00:37:02.417Z,102462.05
2018-02-27T00:40:05.673Z,102466.47
2018-02-27T00:43:08.955Z,102457.44
2018-02-27T00:46:12.238Z,102459.76
2018-02-27T00:49:15.416Z,102463.18
2018-02-27T00:52:18.670Z,102457.37
2018-02-27T00:55:24.025Z,102459.29
2018-02-27T00:58:27.318Z,102454.72
2018-02-27T01:01:30.526Z,102448.91
2018-02-27T01:04:33.732Z,102441.48
2018-02-27T01:07:36.922Z,102439.24
2018-02-27T01:10:40.122Z,102440.03
2018-02-27T01:13:43.422Z,102440.09
2018-02-27T01:16:46.695Z,102439.81
2018-02-27T01:19:49.905Z,102437.70
2018-02-27T01:22:53.404Z,102440.79
2018-02-27T01:25:56.702Z,102433.30
2018-02-27T01:28:59.984Z,102437.73
2018-02-27T01:32:03.220Z,102435.13
2018-02-27T01:35:06.529Z,102435.91
2018-02-27T01:38:09.806Z,102437.10
2018-02-27T01:41:13.002Z,102432.06
2018-02-27T01:44:16.338Z,102427.71
2018-02-27T01:47:19.489Z,102427.84
2018-02-27T01:50:23.713Z,102430.08
2018-02-27T01:53:26.934Z,102423.15
2018-02-27T01:56:30.102Z,102421.61
2018-02-27T01:59:33.351Z,102421.81
2018-02-27T02:02:36.562Z,102420.24
2018-02-27T02:05:39.869Z,102414.50
2018-02-27T02:08:43.148Z,102416.76
2018-02-27T02:11:46.549Z,102404.13
2018-02-27T02:14:50.809Z,102401.32
2018-02-27T02:17:55.726Z,102399.17
2018-02-27T02:21:03.315Z,102389.03
2018-02-27T02:24:06.590Z,102397.23
2018-02-27T02:27:09.804Z,102393.39
2018-02-27T02:30:13.184Z,102389.75
2018-02-27T02:33:16.379Z,102387.07
2018-02-27T02:36:19.660Z,102387.31
2018-02-27T02:42:59.339Z,102388.82
2018-02-27T02:46:02.481Z,102383.40
2018-02-27T02:49:05.766Z,102380.35
2018-02-27T02:52:08.993Z,102381.76
2018-02-27T02:55:12.200Z,102380.47
2018-02-27T02:58:15.462Z,102383.43
2018-02-27T03:01:18.721Z,102381.96
2018-02-27T03:04:22.669Z,102378.76
2018-02-27T03:07:26.015Z,102377.54
2018-02-27T03:10:29.269Z,102380.28
2018-02-27T03:13:32.579Z,102376.45
2018-02-27T03:16:35.850Z,102376.19
2018-02-27T03:19:39.162Z,102371.87
2018-02-27T03:22:42.384Z,102372.62
2018-02-27T03:25:45.657Z,102360.05
2018-02-27T03:28:48.884Z,102358.43
2018-02-27T03:31:52.669Z,102346.99
2018-02-27T03:34:55.990Z,102347.87
2018-02-27T03:37:59.124Z,102352.03
2018-02-27T03:41:02.282Z,102348.11
2018-02-27T03:44:05.541Z,102344.11
2018-02-27T03:47:09.304Z,102345.55
2018-02-27T03:50:12.578Z,102344.01
2018-02-27T03:53:15.763Z,102336.37
2018-02-27T03:56:18.998Z,102333.62
2018-02-27T03:59:22.679Z,102337.74
2018-02-27T04:02:25.960Z,102329.94
2018-02-27T04:05:29.212Z,102321.13
2018-02-27T04:08:32.413Z,102318.83
2018-02-27T04:11:35.649Z,102311.22
2018-02-27T04:14:39.008Z,102312.52
2018-02-27T04:17:42.266Z,102311.69
2018-02-27T04:20:45.513Z,102310.47
2018-02-27T04:27:20.156Z,102306.29
2018-02-27T04:30:24.837Z,102310.90
2018-02-27T04:33:28.058Z,102311.17
2018-02-27T04:36:31.361Z,102313.83
2018-02-27T04:39:34.655Z,102311.45
2018-02-27T04:42:37.973Z,102316.81
2018-02-27T04:45:41.211Z,102314.07
2018-02-27T04:48:44.468Z,102315.75
2018-02-27T04:55:18.274Z,102323.91
2018-02-27T04:58:22.591Z,102319.89
2018-02-27T05:01:25.848Z,102321.75
2018-02-27T05:04:29.111Z,102321.71
2018-02-27T05:07:32.335Z,102323.77
2018-02-27T05:10:35.529Z,102326.10
2018-02-27T05:13:38.808Z,102321.30
2018-02-27T05:16:42.008Z,102322.10
2018-02-27T05:19:45.310Z,102317.47
2018-02-27T05:22:48.510Z,102319.35
2018-02-27T05:25:51.812Z,102315.77
2018-02-27T05:28:55.048Z,102316.70
2018-02-27T05:31:58.294Z,102312.48
2018-02-27T05:35:01.601Z,102307.69
2018-02-27T05:38:04.996Z,102313.01
2018-02-27T05:41:08.229Z,102311.93
2018-02-27T05:44:11.416Z,102309.10
2018-02-27T05:47:14.630Z,102312.27
2018-02-27T05:50:17.854Z,102313.14
2018-02-27T05:53:21.025Z,102320.39
2018-02-27T05:56:25.142Z,102319.64
2018-02-27T05:59:28.617Z,102332.32
2018-02-27T06:02:31.961Z,102327.45
2018-02-27T06:05:35.388Z,102326.22
2018-02-27T06:08:38.605Z,102324.76
2018-02-27T06:11:41.921Z,102322.89
2018-02-27T06:14:45.131Z,102323.07
2018-02-27T06:17:48.362Z,102321.15
2018-02-27T06:20:51.622Z,102322.57
2018-02-27T06:23:54.983Z,102327.67
2018-02-27T06:26:58.298Z,102327.17
2018-02-27T06:30:01.581Z,102333.37
2018-02-27T06:33:04.876Z,102331.77
2018-02-27T06:36:08.206Z,102334.65
2018-02-27T06:39:11.393Z,102344.24
2018-02-27T06:42:14.685Z,102339.84
2018-02-27T06:45:18.231Z,102340.54
2018-02-27T06:48:21.470Z,102337.97
2018-02-27T06:51:24.684Z,102333.60
2018-02-27T06:54:29.007Z,102334.58
2018-02-27T06:57:32.224Z,102335.28
2018-02-27T07:00:35.492Z,102330.52
2018-02-27T07:03:38.683Z,102330.39
2018-02-27T07:06:41.919Z,102323.41
2018-02-27T07:09:45.185Z,102320.15
2018-02-27T07:12:48.522Z,102324.90
2018-02-27T07:15:51.701Z,102324.37
2018-02-27T07:18:55.070Z,102323.01
2018-02-27T07:21:58.382Z,102328.94
2018-02-27T07:25:01.682Z,102327.31
2018-02-27T07:28:06.709Z,102328.73
2018-02-27T07:31:10.082Z,102324.13
2018-02-27T07:34:13.295Z,102329.37
2018-02-27T07:37:17.495Z,102324.09
2018-02-27T07:40:20.713Z,102331.23
2018-02-27T07:43:23.983Z,102331.27
2018-02-27T07:46:27.158Z,102334.67
2018-02-27T07:49:30.399Z,102334.66
2018-02-27T07:52:33.725Z,102336.20
2018-02-27T07:55:37.062Z,102339.37
2018-02-27T07:58:40.235Z,102336.07
2018-02-27T08:01:43.470Z,102337.66
2018-02-27T08:04:46.972Z,102337.52
2018-02-27T08:07:50.217Z,102330.99
2018-02-27T08:10:54.619Z,102325.47
2018-02-27T08:13:57.941Z,102328.11
2018-02-27T08:17:01.144Z,102330.16
2018-02-27T08:20:04.503Z,102332.50
2018-02-27T08:23:07.783Z,102331.23
2018-02-27T08:26:11.003Z,102333.64
2018-02-27T08:29:14.253Z,102331.48
2018-02-27T08:32:17.515Z,102325.49
2018-02-27T08:35:20.801Z,102322.61
2018-02-27T08:38:24.097Z,102312.76
2018-02-27T08:41:27.397Z,102314.82
2018-02-27T08:44:30.702Z,102304.22
2018-02-27T08:47:34.002Z,102308.48
2018-02-27T08:50:37.185Z,102309.22
2018-02-27T08:53:40.427Z,102305.61
2018-02-27T08:56:43.617Z,102302.05
2018-02-27T08:59:46.807Z,102299.41
2018-02-27T09:02:50.073Z,102304.57
2018-02-27T09:05:53.213Z,102295.41
2018-02-27T09:08:56.476Z,102293.34
2018-02-27T09:11:59.759Z,102295.61
2018-02-27T09:15:03.163Z,102296.44
2018-02-27T09:18:06.430Z,102295.53
2018-02-27T09:21:09.910Z,102287.84
2018-02-27T09:24:13.099Z,102280.82
2018-02-27T09:27:16.378Z,102281.14
2018-02-27T09:30:19.723Z,102279.73
2018-02-27T09:33:22.902Z,102274.17
2018-02-27T09:36:26.154Z,102266.76
2018-02-27T09:39:29.442Z,102265.90
2018-02-27T09:42:32.768Z,102266.76
2018-02-27T09:45:35.914Z,102260.28
2018-02-27T09:48:39.253Z,102264.27
2018-02-27T09:51:42.550Z,102266.15
2018-02-27T09:54:45.905Z,102264.06
2018-02-27T09:57:50.313Z,102263.31
2018-02-27T10:00:53.486Z,102258.98
2018-02-27T10:03:56.686Z,102254.81
2018-02-27T10:06:59.891Z,102257.96
2018-02-27T10:10:03.290Z,102255.24
2018-02-27T10:13:06.547Z,102255.31
2018-02-27T10:19:40.609Z,102248.34
2018-02-27T10:22:44.001Z,102249.80
2018-02-27T10:25:47.186Z,102262.44
2018-02-27T10:28:50.380Z,102257.67
2018-02-27T10:31:53.864Z,102246.59
2018-02-27T10:34:57.066Z,102244.28
2018-02-27T10:38:00.222Z,102243.90
2018-02-27T10:41:03.462Z,102241.16
2018-02-27T10:44:06.708Z,102238.54
2018-02-27T10:47:10.436Z,102233.91
2018-02-27T10:50:13.722Z,102229.12
2018-02-27T10:53:16.935Z,102224.00
2018-02-27T10:56:20.819Z,102218.71
2018-02-27T10:59:24.128Z,102212.64
2018-02-27T11:02:27.378Z,102217.92
2018-02-27T11:05:31.310Z,102213.20
2018-02-27T11:08:34.529Z,102209.19
2018-02-27T11:11:44.944Z,102207.79
2018-02-27T11:14:49.196Z,102207.98
2018-02-27T11:17:52.506Z,102207.82
2018-02-27T11:20:55.794Z,102200.33
2018-02-27T11:23:59.183Z,102193.71
2018-02-27T11:27:02.502Z,102191.71
2018-02-27T11:30:05.720Z,102188.74
2018-02-27T11:33:08.994Z,102185.13
2018-02-27T11:36:12.190Z,102176.73
2018-02-27T11:39:15.369Z,102175.27
2018-02-27T11:42:19.054Z,102171.91
2018-02-27T11:45:22.282Z,102170.18
2018-02-27T11:48:25.438Z,102164.23
2018-02-27T11:51:28.572Z,102163.28
2018-02-27T11:54:31.744Z,102165.35
2018-02-27T11:57:34.960Z,102161.13
2018-02-27T12:00:38.194Z,102158.26
2018-02-27T12:03:41.406Z,102155.74
2018-02-27T12:06:44.696Z,102151.17
2018-02-27T12:09:47.953Z,102147.05
2018-02-27T12:12:51.881Z,102145.00
2018-02-27T12:15:55.161Z,102144.51
2018-02-27T12:18:58.386Z,102146.02
2018-02-27T12:22:01.591Z,102141.44
2018-02-27T12:25:04.837Z,102139.10
2018-02-27T12:28:08.068Z,102132.45
2018-02-27T12:31:11.329Z,102134.53
2018-02-27T12:34:14.638Z,102125.74
2018-02-27T12:37:17.948Z,102128.67
2018-02-27T12:40:22.408Z,102125.52
2018-02-27T12:43:25.645Z,102112.73
2018-02-27T12:46:28.923Z,102114.87
2018-02-27T12:49:32.091Z,102119.66
2018-02-27T12:52:36.302Z,102108.06
2018-02-27T12:55:39.586Z,102107.86
2018-02-27T12:58:42.904Z,102103.31
2018-02-27T13:01:46.100Z,102099.65
2018-02-27T13:04:50.190Z,102102.43
2018-02-27T13:07:53.418Z,102102.67
2018-02-27T13:10:56.720Z,102097.65
2018-02-27T13:13:59.992Z,102098.51
2018-02-27T13:17:03.201Z,102097.69
2018-02-27T13:20:06.834Z,102097.33
2018-02-27T13:23:10.002Z,102098.21
2018-02-27T13:26:13.315Z,102090.76
2018-02-27T13:29:16.583Z,102086.92
2018-02-27T13:32:20.529Z,102077.93
2018-02-27T13:35:23.778Z,102077.46
2018-02-27T13:38:27.089Z,102067.45
2018-02-27T13:41:30.297Z,102071.48
2018-02-27T13:44:33.503Z,102069.76
2018-02-27T13:47:37.979Z,102067.66
2018-02-27T13:50:41.280Z,102070.45
2018-02-27T13:53:44.527Z,102067.80
2018-02-27T13:56:47.937Z,102076.18
2018-02-27T13:59:51.645Z,102077.95
2018-02-27T14:02:54.767Z,102072.31
2018-02-27T14:05:57.877Z,102066.62
2018-02-27T14:09:04.584Z,102066.73
2018-02-27T14:12:07.677Z,102067.34
2018-02-27T14:15:13.929Z,102063.56
2018-02-27T14:18:18.215Z,102062.29
2018-02-27T14:21:21.324Z,102062.93
2018-02-27T14:24:24.396Z,102055.76
2018-02-27T14:27:27.608Z,102053.67
2018-02-27T14:30:30.727Z,102054.28
2018-02-27T14:33:37.405Z,102051.17
2018-02-27T14:36:40.588Z,102054.79
2018-02-27T14:39:43.685Z,102045.21
2018-02-27T14:42:46.784Z,102041.96
2018-02-27T14:45:50.049Z,102036.81
2018-02-27T14:48:53.134Z,102034.61
2018-02-27T14:51:56.228Z,102034.06
2018-02-27T14:54:59.355Z,102036.64
2018-02-27T14:58:06.178Z,102032.65
2018-02-27T15:01:09.285Z,102032.72
2018-02-27T15:04:12.383Z,102032.36
2018-02-27T15:07:15.471Z,102037.81
2018-02-27T15:10:18.576Z,102036.01
2018-02-27T15:13:21.696Z,102040.42
2018-02-27T15:16:24.787Z,102047.50
2018-02-27T15:19:27.890Z,102045.00
2018-02-27T15:22:30.975Z,102042.31
2018-02-27T15:25:34.077Z,102045.18
2018-02-27T15:28:37.199Z,102040.84
2018-02-27T15:31:40.288Z,102039.41
2018-02-27T15:34:43.375Z,102036.61
2018-02-27T15:37:46.523Z,102037.99
2018-02-27T15:40:49.589Z,102038.57
2018-02-27T15:43:52.738Z,102039.83
2018-02-27T15:46:57.358Z,102038.83
2018-02-27T15:50:00.520Z,102039.33
2018-02-27T15:53:03.617Z,102040.56
2018-02-27T15:56:06.705Z,102039.72
2018-02-27T15:59:09.801Z,102036.81
2018-02-27T16:02:12.882Z,102043.65
2018-02-27T16:05:16.168Z,102043.30
2018-02-27T16:08:20.280Z,102046.84
2018-02-27T16:11:23.367Z,102039.11
2018-02-27T16:14:26.484Z,102048.19
2018-02-27T16:17:29.576Z,102047.10
2018-02-27T16:20:32.669Z,102049.91
2018-02-27T16:23:35.772Z,102057.97
2018-02-27T16:26:38.904Z,102050.41
2018-02-27T16:29:42.479Z,102045.94
2018-02-27T16:32:45.649Z,102049.45
2018-02-27T16:35:48.863Z,102053.03
2018-02-27T16:38:52.952Z,102058.96
2018-02-27T16:41:56.096Z,102052.36
2018-02-27T16:44:59.227Z,102055.55
2018-02-27T16:48:02.398Z,102053.08
2018-02-27T16:51:05.584Z,102051.59
2018-02-27T16:54:08.753Z,102058.47
2018-02-27T16:57:11.928Z,102060.02
2018-02-27T17:00:15.648Z,102063.42
2018-02-27T17:03:19.171Z,102066.61
2018-02-27T17:06:22.288Z,102071.52
2018-02-27T17:09:25.418Z,102078.26
2018-02-27T17:12:28.548Z,102084.67
2018-02-27T17:15:31.648Z,102086.30
2018-02-27T17:18:34.760Z,102087.80
2018-02-27T17:21:37.896Z,102094.23
2018-02-27T17:24:41.137Z,102095.88
2018-02-27T17:27:44.256Z,102097.92
2018-02-27T17:30:47.382Z,102105.31
2018-02-27T17:33:50.704Z,102105.29
2018-02-27T17:36:53.861Z,102104.97
2018-02-27T17:39:56.959Z,102109.73
2018-02-27T17:43:00.069Z,102112.15
2018-02-27T17:46:03.188Z,102108.30
2018-02-27T17:49:06.264Z,102108.56
2018-02-27T17:52:09.452Z,102099.35
2018-02-27T17:55:12.524Z,102103.14
2018-02-27T17:58:15.662Z,102103.73
2018-02-27T18:01:18.809Z,102106.49
2018-02-27T18:04:21.980Z,102093.73
2018-02-27T18:07:25.162Z,102094.94
2018-02-27T18:10:28.348Z,102090.23
2018-02-27T18:13:31.539Z,102090.87
2018-02-27T18:16:34.751Z,102085.28
2018-02-27T18:19:37.928Z,102091.47
2018-02-27T18:22:41.201Z,102085.54
2018-02-27T18:25:44.404Z,102097.41
2018-02-27T18:28:47.644Z,102097.46
2018-02-27T18:32:01.624Z,102089.98
2018-02-27T18:35:09.936Z,102085.43
2018-02-27T18:38:13.135Z,102084.44
2018-02-27T18:41:16.301Z,102084.10
2018-02-27T18:44:29.804Z,102088.95
2018-02-27T18:47:33.955Z,102089.19
2018-02-27T18:50:46.712Z,102098.08
2018-02-27T18:54:01.516Z,102096.14
2018-02-27T18:57:04.684Z,102100.34
2018-02-27T19:00:15.133Z,102100.34
2018-02-27T19:03:18.388Z,102098.99
2018-02-27T19:06:21.556Z,102102.23
2018-02-27T19:09:24.786Z,102108.15
2018-02-27T19:12:28.025Z,102111.51
2018-02-27T19:15:34.293Z,102111.62
2018-02-27T19:18:37.484Z,102113.82
2018-02-27T19:21:40.669Z,102116.29
2018-02-27T19:24:54.198Z,102113.76
2018-02-27T19:28:03.226Z,102113.86
2018-02-27T19:31:06.391Z,102114.10
2018-02-27T19:34:09.688Z,102115.61
2018-02-27T19:37:13.067Z,102115.94
2018-02-27T19:40:16.205Z,102111.58
2018-02-27T19:43:21.025Z,102116.45
2018-02-27T19:46:24.243Z,102122.78
2018-02-27T19:49:27.469Z,102117.88
2018-02-27T19:52:30.762Z,102119.98
2018-02-27T19:55:35.168Z,102119.68
2018-02-27T19:58:38.433Z,102119.94
2018-02-27T20:01:41.649Z,102124.80
2018-02-27T20:04:45.178Z,102129.89
2018-02-27T20:07:48.472Z,102134.23
2018-02-27T20:10:51.886Z,102133.02
2018-02-27T20:13:54.986Z,102136.71
2018-02-27T20:16:58.176Z,102140.55
2018-02-27T20:20:01.541Z,102136.70
2018-02-27T20:23:08.832Z,102139.97
2018-02-27T20:26:11.992Z,102148.07
2018-02-27T20:29:21.804Z,102150.90
2018-02-27T20:32:24.987Z,102147.75
2018-02-27T20:35:28.123Z,102153.31
2018-02-27T20:38:35.417Z,102154.03
2018-02-27T20:41:38.612Z,102154.35
2018-02-27T20:44:41.993Z,102152.95
2018-02-27T20:47:45.216Z,102152.42
2018-02-27T20:50:48.589Z,102153.05
2018-02-27T20:53:51.700Z,102154.86
2018-02-27T20:56:54.848Z,102159.08
2018-02-27T20:59:58.246Z,102167.53
2018-02-27T21:03:01.389Z,102163.73
2018-02-27T21:06:04.479Z,102167.77
2018-02-27T21:09:08.060Z,102168.98
2018-02-27T21:12:11.231Z,102171.24
2018-02-27T21:15:14.485Z,102169.40
2018-02-27T21:18:19.715Z,102162.31
2018-02-27T21:21:26.709Z,102163.72
2018-02-27T21:24:35.173Z,102164.80
2018-02-27T21:27:45.513Z,102162.84
2018-02-27T21:30:50.936Z,102161.58
2018-02-27T21:33:58.788Z,102162.38
2018-02-27T21:37:02.908Z,102167.25
2018-02-27T21:40:11.617Z,102171.07
2018-02-27T21:43:14.833Z,102164.00
2018-02-27T21:46:27.723Z,102168.07
2018-02-27T21:49:31.923Z,102163.59
2018-02-27T21:52:35.381Z,102164.91
2018-02-27T21:55:38.575Z,102160.93
2018-02-27T21:58:41.692Z,102162.28
2018-02-27T22:01:45.880Z,102165.29
2018-02-27T22:04:49.092Z,102165.04
2018-02-27T22:08:02.168Z,102166.26
2018-02-27T22:11:05.356Z,102170.38
2018-02-27T22:14:08.600Z,102170.89
2018-02-27T22:17:28.339Z,102173.08
2018-02-27T22:20:31.533Z,102170.99
2018-02-27T22:23:35.685Z,102168.79
2018-02-27T22:26:38.949Z,102171.82
2018-02-27T22:29:42.145Z,102172.28
2018-02-27T22:32:46.303Z,102172.89
2018-02-27T22:35:49.561Z,102170.22
2018-02-27T22:38:52.761Z,102169.53
2018-02-27T22:41:55.976Z,102167.87
2018-02-27T22:44:59.212Z,102167.71
2018-02-27T22:48:02.407Z,102164.60
2018-02-27T22:51:13.273Z,102163.36
2018-02-27T22:54:17.483Z,102171.65
2018-02-27T22:57:20.722Z,102170.72
2018-02-27T23:00:32.867Z,102171.63
2018-02-27T23:03:44.096Z,102173.11
2018-02-27T23:06:48.548Z,102174.14
2018-02-27T23:09:51.774Z,102174.33
2018-02-27T23:12:54.965Z,102173.63
2018-02-27T23:15:59.112Z,102173.53
2018-02-27T23:19:02.327Z,102172.82
2018-02-27T23:22:05.465Z,102173.91
2018-02-27T23:25:12.813Z,102170.95
2018-02-27T23:28:17.474Z,102169.39
2018-02-27T23:31:26.265Z,102168.10
2018-02-27T23:34:53.616Z,102163.56
2018-02-27T23:37:57.784Z,102154.10
2018-02-27T23:41:01.924Z,102160.20
2018-02-27T23:44:05.037Z,102157.51
2018-02-27T23:47:15.309Z,102157.44
2018-02-27T23:50:18.541Z,102166.61
2018-02-27T23:53:21.688Z,102158.83
2018-02-27T23:56:24.870Z,102160.35
2018-02-27T23:59:30.094Z,102162.89
